Time;durP1;ratioP1;P1;durP2;ratioP2;P2;SDS_P1;SDS_P2;PMS_P1;PMS_P2;Temp;Humidity;BMP_temperature;BMP_pressure;BME280_temperature;BME280_humidity;BME280_pressure;Samples;Min_cycle;Max_cycle;Signal;HPM_P1;HPM_P2
2021/11/23 00:01:25;;;;;;;6.65;5.10;;;23.30;37.10;;;;;;5055063;28;20051;-65
2021/11/23 00:03:52;;;;;;;6.22;4.60;;;23.20;37.10;;;;;;5045667;28;20060;-65
2021/11/23 00:06:20;;;;;;;5.20;4.45;;;23.20;37.10;;;;;;5045234;28;20105;-65
2021/11/23 00:08:47;;;;;;;4.90;4.03;;;23.20;37.10;;;;;;5044438;28;20049;-65
2021/11/23 00:11:15;;;;;;;5.43;4.35;;;23.20;37.10;;;;;;5041456;28;20564;-65
2021/11/23 00:13:42;;;;;;;5.70;4.10;;;23.20;37.00;;;;;;5038231;28;20055;-65
2021/11/23 00:16:14;;;;;;;5.78;4.50;;;23.20;37.00;;;;;;5042258;28;20048;-65
2021/11/23 00:18:41;;;;;;;4.57;3.83;;;23.30;37.10;;;;;;5044317;28;20091;-65
2021/11/23 00:21:08;;;;;;;4.28;3.85;;;23.20;37.00;;;;;;5043177;28;20048;-65
2021/11/23 00:23:35;;;;;;;5.78;4.50;;;23.20;37.10;;;;;;5041447;28;20056;-65
2021/11/23 00:26:03;;;;;;;5.03;4.07;;;23.20;37.00;;;;;;5044618;28;20527;-65
2021/11/23 00:28:30;;;;;;;5.70;4.60;;;23.20;37.10;;;;;;5044339;28;20097;-65
2021/11/23 00:30:58;;;;;;;5.25;3.97;;;23.20;37.10;;;;;;5040327;28;20052;-65
2021/11/23 00:33:31;;;;;;;4.55;3.95;;;23.20;37.10;;;;;;5039458;28;20052;-65
2021/11/23 00:35:59;;;;;;;5.22;4.53;;;23.20;37.10;;;;;;5043846;28;20087;-65
2021/11/23 00:38:26;;;;;;;5.25;4.38;;;23.20;37.10;;;;;;5044158;28;20421;-65
2021/11/23 00:40:53;;;;;;;5.60;4.55;;;23.20;37.10;;;;;;5023548;28;20090;-66
2021/11/23 00:43:20;;;;;;;5.18;4.22;;;23.20;37.10;;;;;;5038464;28;20553;-65
2021/11/23 00:45:47;;;;;;;4.43;3.90;;;23.20;37.10;;;;;;5026540;28;20130;-65
2021/11/23 00:48:14;;;;;;;5.25;3.90;;;23.20;37.10;;;;;;5043987;28;20063;-65
2021/11/23 00:50:49;;;;;;;4.43;3.60;;;23.20;37.20;;;;;;5025507;28;20511;-65
2021/11/23 00:53:17;;;;;;;6.78;4.45;;;23.20;37.10;;;;;;5040635;28;20140;-65
2021/11/23 00:55:44;;;;;;;5.25;4.22;;;23.20;37.10;;;;;;5044397;28;20810;-65
2021/11/23 00:58:11;;;;;;;4.95;4.10;;;23.20;37.10;;;;;;5043590;28;20088;-64
2021/11/23 01:00:38;;;;;;;5.85;4.10;;;23.20;37.10;;;;;;5043726;28;20090;-65
2021/11/23 01:03:05;;;;;;;6.10;4.30;;;23.20;37.10;;;;;;5033608;28;20142;-65
2021/11/23 01:05:33;;;;;;;4.05;3.65;;;23.20;37.10;;;;;;5044004;28;20485;-65
2021/11/23 01:08:01;;;;;;;4.70;4.13;;;23.20;37.10;;;;;;5043140;28;20529;-65
2021/11/23 01:10:28;;;;;;;4.90;4.40;;;23.20;37.10;;;;;;5043458;28;20135;-65
2021/11/23 01:12:56;;;;;;;5.35;4.40;;;23.20;37.10;;;;;;5045787;28;20081;-65
2021/11/23 01:15:23;;;;;;;4.78;3.88;;;23.20;37.10;;;;;;5044112;28;20136;-65
2021/11/23 01:17:50;;;;;;;4.80;4.30;;;23.20;37.10;;;;;;5043230;28;20083;-65
2021/11/23 01:20:18;;;;;;;5.07;4.10;;;23.20;37.10;;;;;;5044115;28;20099;-65
2021/11/23 01:22:46;;;;;;;4.93;4.07;;;23.20;37.10;;;;;;5041114;28;20049;-65
2021/11/23 01:25:14;;;;;;;4.32;3.92;;;23.20;37.20;;;;;;5045307;28;20139;-65
2021/11/23 01:27:41;;;;;;;4.13;3.72;;;23.20;37.10;;;;;;5047733;28;20139;-65
2021/11/23 01:30:11;;;;;;;4.53;3.95;;;23.20;37.10;;;;;;5046890;28;20122;-65
2021/11/23 01:32:39;;;;;;;4.38;3.83;;;23.20;37.20;;;;;;5045014;28;20076;-65
2021/11/23 01:35:08;;;;;;;4.20;3.63;;;23.20;37.20;;;;;;5047923;28;20639;-65
2021/11/23 01:37:36;;;;;;;4.47;4.07;;;23.20;37.20;;;;;;5046966;28;20045;-65
2021/11/23 01:40:04;;;;;;;4.35;3.72;;;23.10;37.20;;;;;;5045921;28;20156;-65
2021/11/23 01:42:31;;;;;;;4.45;3.63;;;23.10;37.20;;;;;;5043441;28;20048;-65
2021/11/23 01:44:58;;;;;;;5.20;3.95;;;23.20;37.20;;;;;;5067258;28;20044;-65
2021/11/23 01:47:26;;;;;;;4.80;4.25;;;23.20;37.20;;;;;;5066745;28;20500;-64
2021/11/23 01:49:53;;;;;;;6.32;4.70;;;23.10;37.20;;;;;;5066155;28;20139;-65
2021/11/23 01:52:21;;;;;;;5.38;4.10;;;23.10;37.20;;;;;;5054742;28;20073;-65
2021/11/23 01:54:48;;;;;;;4.57;4.13;;;23.10;37.20;;;;;;5046993;28;20049;-65
2021/11/23 01:57:16;;;;;;;4.18;3.42;;;23.10;37.20;;;;;;5045696;28;20056;-65
2021/11/23 01:59:44;;;;;;;4.88;4.05;;;23.10;37.20;;;;;;5045288;28;20087;-65
2021/11/23 02:02:12;;;;;;;4.22;3.50;;;23.10;37.20;;;;;;5045221;28;20067;-65
2021/11/23 02:04:40;;;;;;;4.90;3.85;;;23.10;37.20;;;;;;5045656;28;20049;-65
2021/11/23 02:07:08;;;;;;;3.97;3.50;;;23.10;37.20;;;;;;5048329;28;20048;-65
2021/11/23 02:09:35;;;;;;;5.00;3.42;;;23.00;37.20;;;;;;5051141;28;20098;-65
2021/11/23 02:12:03;;;;;;;4.10;3.70;;;23.00;37.20;;;;;;5045686;28;20101;-65
2021/11/23 02:14:31;;;;;;;4.63;4.22;;;23.10;37.30;;;;;;5046782;28;20048;-65
2021/11/23 02:16:58;;;;;;;4.20;3.67;;;23.00;37.80;;;;;;5046863;28;20129;-65
2021/11/23 02:19:26;;;;;;;4.35;3.83;;;23.10;37.30;;;;;;5045936;28;20106;-64
2021/11/23 02:21:53;;;;;;;4.15;3.50;;;23.10;37.30;;;;;;5044061;28;20083;-65
2021/11/23 02:24:20;;;;;;;4.55;3.55;;;23.00;37.30;;;;;;5027235;28;20056;-64
2021/11/23 02:26:47;;;;;;;4.35;3.65;;;23.00;37.30;;;;;;5046475;28;20052;-64
2021/11/23 02:29:15;;;;;;;4.63;3.75;;;23.00;37.30;;;;;;5047394;28;20052;-64
2021/11/23 02:31:42;;;;;;;4.53;3.88;;;23.00;37.30;;;;;;5042385;28;20055;-65
2021/11/23 02:34:11;;;;;;;3.65;3.28;;;23.00;37.30;;;;;;5043468;28;20048;-64
2021/11/23 02:36:39;;;;;;;3.92;3.53;;;23.00;37.30;;;;;;5045347;28;20079;-64
2021/11/23 02:39:06;;;;;;;3.83;3.20;;;23.00;37.30;;;;;;5045767;28;20056;-64
2021/11/23 02:41:37;;;;;;;3.97;3.58;;;23.00;37.30;;;;;;5047056;28;20060;-64
2021/11/23 02:44:06;;;;;;;4.13;3.72;;;23.00;37.30;;;;;;5046706;28;20143;-64
2021/11/23 02:46:34;;;;;;;4.30;3.43;;;23.10;37.30;;;;;;5046434;28;20083;-64
2021/11/23 02:49:02;;;;;;;3.45;3.15;;;23.00;37.30;;;;;;5045892;28;20713;-64
2021/11/23 02:51:33;;;;;;;4.40;3.67;;;23.10;37.30;;;;;;5047903;28;20109;-65
2021/11/23 02:54:01;;;;;;;4.30;3.78;;;23.00;37.30;;;;;;5064300;28;20060;-65
2021/11/23 02:56:28;;;;;;;3.67;3.33;;;23.10;37.30;;;;;;5066409;28;20140;-65
2021/11/23 02:58:56;;;;;;;3.40;3.10;;;23.00;37.30;;;;;;5066108;28;20058;-65
2021/11/23 03:01:26;;;;;;;5.28;3.88;;;23.10;37.30;;;;;;5039346;28;20053;-65
2021/11/23 03:03:55;;;;;;;3.78;3.40;;;23.10;37.30;;;;;;5048145;28;20074;-65
2021/11/23 03:06:23;;;;;;;3.90;3.50;;;23.10;37.90;;;;;;5045483;28;20102;-65
2021/11/23 03:08:51;;;;;;;4.60;3.95;;;23.00;37.30;;;;;;5045976;28;20472;-65
2021/11/23 03:11:21;;;;;;;3.90;3.45;;;23.00;37.30;;;;;;5046301;28;20048;-65
2021/11/23 03:13:48;;;;;;;3.57;3.10;;;23.00;37.30;;;;;;5041802;28;20056;-65
2021/11/23 03:16:16;;;;;;;4.35;3.25;;;23.00;37.30;;;;;;5045235;28;20129;-65
2021/11/23 03:18:43;;;;;;;3.45;3.15;;;23.00;37.30;;;;;;5053084;28;20070;-65
2021/11/23 03:21:10;;;;;;;4.30;3.80;;;23.00;37.30;;;;;;5042484;28;20573;-65
2021/11/23 03:23:37;;;;;;;3.53;3.17;;;23.10;37.30;;;;;;5042088;28;20092;-65
2021/11/23 03:26:05;;;;;;;4.00;3.60;;;23.00;37.30;;;;;;5046160;28;20475;-65
2021/11/23 03:28:32;;;;;;;3.90;3.50;;;23.00;37.30;;;;;;5045468;28;20088;-65
2021/11/23 03:31:00;;;;;;;3.35;3.05;;;23.00;37.30;;;;;;5042356;28;20080;-65
2021/11/23 03:33:27;;;;;;;3.63;3.28;;;23.00;37.30;;;;;;5043512;28;20056;-65
2021/11/23 03:35:55;;;;;;;4.57;3.70;;;23.00;37.30;;;;;;5044794;28;20745;-65
2021/11/23 03:38:24;;;;;;;3.20;2.90;;;23.00;37.30;;;;;;5044929;28;20710;-65
2021/11/23 03:40:51;;;;;;;4.05;3.65;;;23.00;37.30;;;;;;5042214;28;20060;-65
2021/11/23 03:43:20;;;;;;;3.50;3.20;;;23.00;37.90;;;;;;5045576;28;20052;-65
2021/11/23 03:45:47;;;;;;;3.45;3.15;;;23.00;37.40;;;;;;5043447;28;20151;-65
2021/11/23 03:48:15;;;;;;;3.40;3.00;;;23.00;37.30;;;;;;5044735;28;20452;-65
2021/11/23 03:50:42;;;;;;;3.60;3.25;;;23.00;37.30;;;;;;5044399;28;20582;-65
2021/11/23 03:53:09;;;;;;;3.13;2.83;;;23.00;37.40;;;;;;5030690;28;20048;-65
2021/11/23 03:55:38;;;;;;;4.18;3.45;;;23.00;37.40;;;;;;5044744;28;20083;-65
2021/11/23 03:58:06;;;;;;;3.53;3.13;;;23.00;37.40;;;;;;5044643;28;20055;-65
2021/11/23 04:00:33;;;;;;;3.50;3.13;;;23.00;37.40;;;;;;5042872;28;20052;-65
2021/11/23 04:03:01;;;;;;;3.40;3.10;;;22.90;37.30;;;;;;5036917;28;20223;-65
2021/11/23 04:05:28;;;;;;;3.25;2.95;;;22.90;37.40;;;;;;5044978;28;20530;-65
2021/11/23 04:07:55;;;;;;;3.33;3.03;;;22.90;37.40;;;;;;5045545;28;20528;-65
2021/11/23 04:10:23;;;;;;;4.13;3.40;;;22.90;37.40;;;;;;5044025;28;20080;-65
2021/11/23 04:12:51;;;;;;;3.13;2.83;;;22.90;37.40;;;;;;5037115;28;20110;-65
2021/11/23 04:15:19;;;;;;;3.30;3.00;;;22.90;37.40;;;;;;5026949;28;20049;-65
2021/11/23 04:17:48;;;;;;;3.47;2.67;;;22.90;37.40;;;;;;5044723;28;20064;-65
2021/11/23 04:20:16;;;;;;;3.38;3.08;;;22.90;37.40;;;;;;5028985;28;20111;-65
2021/11/23 04:22:44;;;;;;;2.90;2.63;;;22.90;37.40;;;;;;5039769;28;20482;-64
2021/11/23 04:25:12;;;;;;;3.15;2.85;;;22.90;37.40;;;;;;5064076;28;20056;-64
2021/11/23 04:27:40;;;;;;;2.60;2.40;;;22.90;37.50;;;;;;5065185;28;20112;-64
2021/11/23 04:30:09;;;;;;;3.20;2.92;;;22.90;37.40;;;;;;5064318;28;20051;-64
2021/11/23 04:32:36;;;;;;;2.80;2.60;;;22.90;37.50;;;;;;5046029;28;20568;-64
2021/11/23 04:35:05;;;;;;;4.03;3.05;;;22.90;37.50;;;;;;5043627;28;20052;-64
2021/11/23 04:37:32;;;;;;;3.40;3.10;;;22.90;37.40;;;;;;5043754;28;20080;-64
2021/11/23 04:39:59;;;;;;;3.20;2.90;;;23.00;37.60;;;;;;5044152;28;20097;-64
2021/11/23 04:42:28;;;;;;;3.63;3.30;;;22.90;37.50;;;;;;5035116;28;20102;-65
2021/11/23 04:44:55;;;;;;;2.85;2.63;;;22.90;37.40;;;;;;5044179;28;20048;-65
2021/11/23 04:47:22;;;;;;;3.20;2.90;;;22.90;37.40;;;;;;5043868;28;20153;-65
2021/11/23 04:49:49;;;;;;;3.17;2.85;;;22.90;37.40;;;;;;5044174;28;20114;-65
2021/11/23 04:52:16;;;;;;;2.53;2.33;;;22.90;37.40;;;;;;5043266;28;20052;-65
2021/11/23 04:54:44;;;;;;;3.17;2.88;;;22.90;37.40;;;;;;5064097;28;20701;-65
2021/11/23 04:57:11;;;;;;;4.32;3.15;;;22.90;37.40;;;;;;5064180;28;20084;-65
2021/11/23 04:59:39;;;;;;;3.10;2.80;;;22.90;37.40;;;;;;5040843;28;20095;-65
2021/11/23 05:02:06;;;;;;;2.97;2.65;;;22.90;37.40;;;;;;5046701;28;20196;-65
2021/11/23 05:04:33;;;;;;;2.75;2.45;;;22.90;37.50;;;;;;5068474;28;20099;-65
2021/11/23 05:07:01;;;;;;;2.65;2.33;;;22.90;37.50;;;;;;5051695;28;20146;-65
2021/11/23 05:09:28;;;;;;;2.92;2.63;;;22.90;37.50;;;;;;5027909;28;20564;-65
2021/11/23 05:11:56;;;;;;;2.92;2.53;;;22.90;37.50;;;;;;5033355;28;20105;-65
2021/11/23 05:14:24;;;;;;;3.05;2.72;;;22.90;37.50;;;;;;5046193;28;20048;-65
2021/11/23 05:16:51;;;;;;;3.08;2.40;;;22.90;37.50;;;;;;5047792;28;20468;-65
2021/11/23 05:19:18;;;;;;;2.30;2.10;;;22.90;37.50;;;;;;5047748;28;20056;-65
2021/11/23 05:21:45;;;;;;;3.22;2.70;;;22.90;37.50;;;;;;5046675;28;21105;-65
2021/11/23 05:24:14;;;;;;;3.25;2.80;;;22.90;37.50;;;;;;5043446;28;20463;-65
2021/11/23 05:26:42;;;;;;;2.42;2.22;;;22.80;37.40;;;;;;5047497;28;20545;-65
2021/11/23 05:29:14;;;;;;;2.42;2.22;;;22.80;37.50;;;;;;5047047;28;20153;-65
2021/11/23 05:31:41;;;;;;;3.35;2.53;;;22.80;37.50;;;;;;5046987;28;20113;-65
2021/11/23 05:34:08;;;;;;;2.35;2.25;;;22.80;37.50;;;;;;5045760;28;20048;-65
2021/11/23 05:36:36;;;;;;;3.28;2.65;;;22.80;37.50;;;;;;5047803;28;20131;-65
2021/11/23 05:39:05;;;;;;;2.75;2.55;;;22.80;37.50;;;;;;5045339;28;20498;-65
2021/11/23 05:41:32;;;;;;;2.53;2.33;;;22.80;37.50;;;;;;5046314;28;20060;-65
2021/11/23 05:43:59;;;;;;;2.63;2.42;;;22.80;37.50;;;;;;5061740;28;20056;-65
2021/11/23 05:46:26;;;;;;;2.50;2.30;;;22.80;37.50;;;;;;5035380;28;20044;-65
2021/11/23 05:48:55;;;;;;;2.63;2.42;;;22.80;37.50;;;;;;5035259;28;20048;-65
2021/11/23 05:51:23;;;;;;;2.70;2.42;;;22.80;37.50;;;;;;5028922;28;20080;-65
2021/11/23 05:53:51;;;;;;;2.80;2.60;;;22.80;37.50;;;;;;5031307;28;20053;-65
2021/11/23 05:56:19;;;;;;;2.40;2.20;;;22.80;37.60;;;;;;5034657;28;20050;-65
2021/11/23 05:58:46;;;;;;;2.60;2.40;;;22.80;37.60;;;;;;5034628;28;20091;-65
2021/11/23 06:01:13;;;;;;;2.50;2.30;;;22.80;37.60;;;;;;5031370;28;20126;-65
2021/11/23 06:03:41;;;;;;;2.88;2.55;;;22.80;37.60;;;;;;5029513;28;20159;-65
2021/11/23 06:06:10;;;;;;;1.95;1.85;;;22.80;37.60;;;;;;5035003;28;20048;-65
2021/11/23 06:08:38;;;;;;;3.08;2.78;;;22.80;37.40;;;;;;5026544;28;20053;-65
2021/11/23 06:11:06;;;;;;;3.45;2.72;;;22.80;37.50;;;;;;5024928;28;20061;-66
2021/11/23 06:13:34;;;;;;;2.38;2.17;;;22.80;37.40;;;;;;5035520;28;20602;-65
2021/11/23 06:16:01;;;;;;;3.25;2.80;;;22.80;37.30;;;;;;5037759;28;20139;-65
2021/11/23 06:18:28;;;;;;;3.60;2.85;;;22.80;37.20;;;;;;5037171;28;20732;-66
2021/11/23 06:20:55;;;;;;;2.50;2.30;;;22.80;37.10;;;;;;5031628;28;20062;-66
2021/11/23 06:23:24;;;;;;;3.30;3.00;;;22.80;37.00;;;;;;5025425;28;20061;-65
2021/11/23 06:25:54;;;;;;;3.00;2.70;;;22.80;37.00;;;;;;5027932;28;20142;-65
2021/11/23 06:28:23;;;;;;;3.28;2.85;;;22.80;36.90;;;;;;5033225;28;20063;-65
2021/11/23 06:30:51;;;;;;;3.40;3.10;;;22.90;36.90;;;;;;5021847;28;20087;-64
2021/11/23 06:33:18;;;;;;;3.28;3.00;;;22.90;36.80;;;;;;5025308;28;20041;-64
2021/11/23 06:35:47;;;;;;;3.15;2.70;;;23.00;36.50;;;;;;5028393;28;20053;-66
2021/11/23 06:38:14;;;;;;;3.78;3.03;;;23.10;36.40;;;;;;5026168;28;20048;-63
2021/11/23 06:40:46;;;;;;;3.70;3.10;;;23.10;36.20;;;;;;5022375;28;20501;-65
2021/11/23 06:43:14;;;;;;;3.92;3.53;;;23.20;35.90;;;;;;5013337;28;21652;-64
2021/11/23 06:45:42;;;;;;;3.47;3.17;;;23.30;35.90;;;;;;5024511;28;20713;-64
2021/11/23 06:48:11;;;;;;;4.90;3.17;;;23.30;35.70;;;;;;5019398;28;20049;-64
2021/11/23 06:50:39;;;;;;;6.18;3.88;;;23.40;35.50;;;;;;5026874;28;20110;-64
2021/11/23 06:53:09;;;;;;;5.45;4.10;;;23.40;35.50;;;;;;5010609;28;20521;-64
2021/11/23 06:55:36;;;;;;;5.95;4.43;;;23.50;35.90;;;;;;5019954;28;20052;-63
2021/11/23 06:58:04;;;;;;;4.82;3.97;;;23.60;35.90;;;;;;5022032;28;20140;-63
2021/11/23 07:00:32;;;;;;;5.05;3.33;;;23.60;36.00;;;;;;5023777;28;20466;-63
2021/11/23 07:02:59;;;;;;;6.70;4.15;;;23.70;36.20;;;;;;5017507;28;20072;-63
2021/11/23 07:05:27;;;;;;;7.20;4.97;;;23.80;36.20;;;;;;5024368;28;20512;-63
2021/11/23 07:08:14;;;;;;;10.50;4.80;;;23.80;36.20;;;;;;5025215;28;20195;-64
2021/11/23 07:10:42;;;;;;;7.07;4.18;;;23.90;36.00;;;;;;5029355;28;20121;-65
2021/11/23 07:13:09;;;;;;;8.25;5.50;;;24.00;35.90;;;;;;5021066;28;20079;-64
2021/11/23 07:15:37;;;;;;;8.02;5.15;;;24.10;36.00;;;;;;5034229;28;20444;-66
2021/11/23 07:18:04;;;;;;;9.60;3.92;;;24.10;36.00;;;;;;5028212;28;20057;-66
2021/11/23 07:20:31;;;;;;;6.97;4.40;;;24.20;35.70;;;;;;5028856;28;20049;-65
2021/11/23 07:22:58;;;;;;;6.10;4.50;;;24.30;35.60;;;;;;5019455;28;20426;-67
2021/11/23 07:25:25;;;;;;;6.50;3.97;;;24.30;35.60;;;;;;5029189;28;20753;-66
2021/11/23 07:27:53;;;;;;;5.55;3.83;;;24.40;35.60;;;;;;5024438;28;20132;-66
2021/11/23 07:30:20;;;;;;;6.10;3.78;;;24.50;35.50;;;;;;5025512;28;20044;-66
2021/11/23 07:32:47;;;;;;;6.90;4.20;;;24.50;35.40;;;;;;5015119;28;20414;-68
2021/11/23 07:35:18;;;;;;;6.85;4.13;;;24.60;35.40;;;;;;5024633;28;20099;-66
2021/11/23 07:37:47;;;;;;;5.15;3.70;;;24.70;35.30;;;;;;5017564;28;20075;-67
2021/11/23 07:40:15;;;;;;;5.43;3.88;;;24.70;35.00;;;;;;5022495;28;20060;-66
2021/11/23 07:42:43;;;;;;;4.68;3.70;;;24.80;35.00;;;;;;5015942;28;20049;-65
2021/11/23 07:45:30;;;;;;;5.25;3.67;;;24.90;34.70;;;;;;5022571;28;20104;-66
2021/11/23 07:47:58;;;;;;;7.07;5.10;;;24.90;34.30;;;;;;5024419;28;20048;-66
2021/11/23 07:50:25;;;;;;;4.78;4.28;;;24.90;33.90;;;;;;5021162;28;20064;-65
2021/11/23 07:52:53;;;;;;;6.70;4.57;;;24.90;33.80;;;;;;5014160;28;20633;-64
2021/11/23 07:55:20;;;;;;;6.95;4.57;;;24.90;33.70;;;;;;5022944;28;20098;-63
2021/11/23 07:57:47;;;;;;;8.48;4.43;;;24.90;34.20;;;;;;5023536;28;20373;-63
2021/11/23 08:00:14;;;;;;;4.85;3.38;;;24.90;34.10;;;;;;5021828;28;20478;-64
2021/11/23 08:02:42;;;;;;;6.38;5.03;;;24.90;34.20;;;;;;5016775;28;20048;-62
2021/11/23 08:05:09;;;;;;;4.72;3.83;;;24.90;34.30;;;;;;5016128;28;20061;-65
2021/11/23 08:07:37;;;;;;;6.15;4.50;;;24.90;34.20;;;;;;5021450;28;20110;-65
2021/11/23 08:10:04;;;;;;;5.72;4.50;;;24.90;34.30;;;;;;5025008;28;20079;-65
2021/11/23 08:12:33;;;;;;;5.00;3.95;;;24.80;34.20;;;;;;5013947;28;20080;-67
2021/11/23 08:15:00;;;;;;;6.78;3.83;;;24.80;34.30;;;;;;5015842;28;20057;-65
2021/11/23 08:17:27;;;;;;;6.45;4.10;;;24.80;34.30;;;;;;5020089;28;20044;-67
2021/11/23 08:19:55;;;;;;;5.50;3.63;;;24.80;34.40;;;;;;5025247;28;20076;-66
2021/11/23 08:22:22;;;;;;;4.63;4.05;;;24.80;34.40;;;;;;5019312;28;20059;-65
2021/11/23 08:24:49;;;;;;;4.78;3.72;;;24.80;34.40;;;;;;5024914;28;20143;-67
2021/11/23 08:27:16;;;;;;;10.48;4.72;;;24.80;34.50;;;;;;5023289;28;20413;-65
2021/11/23 08:29:44;;;;;;;5.28;3.70;;;24.80;34.50;;;;;;5009693;28;20060;-62
2021/11/23 08:32:12;;;;;;;6.85;4.60;;;24.80;34.40;;;;;;5015128;28;20136;-66
2021/11/23 08:34:39;;;;;;;4.63;4.15;;;24.60;32.70;;;;;;5025881;28;20113;-65
2021/11/23 08:37:06;;;;;;;5.32;3.97;;;24.60;33.70;;;;;;5025867;28;20055;-66
2021/11/23 08:39:37;;;;;;;5.57;4.13;;;24.60;34.20;;;;;;5025439;28;20083;-67
2021/11/23 08:42:12;;;;;;;4.85;4.30;;;24.60;34.20;;;;;;5018747;28;20532;-65
2021/11/23 08:44:40;;;;;;;4.53;3.78;;;24.70;34.40;;;;;;5024377;28;20045;-66
2021/11/23 08:47:07;;;;;;;5.40;4.00;;;24.70;34.70;;;;;;5026205;28;20056;-65
2021/11/23 08:49:34;;;;;;;6.53;3.97;;;24.70;34.70;;;;;;5027951;28;20067;-66
2021/11/23 08:52:02;;;;;;;4.63;3.53;;;24.70;35.20;;;;;;5008745;28;20053;-66
2021/11/23 08:54:31;;;;;;;4.35;3.53;;;24.70;34.60;;;;;;5018247;28;20086;-67
2021/11/23 08:57:03;;;;;;;5.60;3.55;;;24.80;34.70;;;;;;5023269;28;20053;-65
2021/11/23 08:59:33;;;;;;;4.70;3.03;;;24.80;34.70;;;;;;5023736;28;20060;-65
2021/11/23 09:02:01;;;;;;;5.15;4.10;;;24.80;34.50;;;;;;5016649;28;20102;-65
2021/11/23 09:04:30;;;;;;;5.88;3.80;;;24.80;34.30;;;;;;5020112;28;20052;-64
2021/11/23 09:07:00;;;;;;;4.63;3.90;;;24.80;34.20;;;;;;5021975;28;20896;-66
2021/11/23 09:09:27;;;;;;;3.65;3.35;;;24.80;34.00;;;;;;5022525;28;20422;-66
2021/11/23 09:11:57;;;;;;;7.97;3.60;;;24.90;34.20;;;;;;5021311;28;20099;-66
2021/11/23 09:14:25;;;;;;;4.50;3.72;;;24.90;34.20;;;;;;5024774;28;20095;-66
2021/11/23 09:16:52;;;;;;;4.20;3.60;;;24.90;34.20;;;;;;5024747;28;20049;-65
2021/11/23 09:19:20;;;;;;;6.47;3.55;;;24.90;34.10;;;;;;5026266;28;20049;-65
2021/11/23 09:21:48;;;;;;;6.18;3.22;;;24.90;34.20;;;;;;5016917;28;20137;-65
2021/11/23 09:24:15;;;;;;;3.90;3.50;;;25.00;34.20;;;;;;5024796;28;20063;-66
2021/11/23 09:26:44;;;;;;;4.00;3.22;;;25.00;34.20;;;;;;5028055;28;20148;-67
2021/11/23 09:29:13;;;;;;;4.88;3.78;;;25.00;34.30;;;;;;5022999;28;20067;-65
2021/11/23 09:31:42;;;;;;;4.07;3.28;;;25.00;34.40;;;;;;5022239;28;20072;-65
2021/11/23 09:34:11;;;;;;;5.93;3.47;;;25.00;34.50;;;;;;5018805;28;20052;-67
2021/11/23 09:36:39;;;;;;;4.72;3.67;;;25.00;34.40;;;;;;5022283;28;20048;-66
2021/11/23 09:39:07;;;;;;;3.83;3.45;;;25.00;34.40;;;;;;5022869;28;20132;-67
2021/11/23 09:41:36;;;;;;;6.13;3.95;;;25.00;34.40;;;;;;5015995;28;20782;-67
2021/11/23 09:44:06;;;;;;;5.15;4.28;;;25.00;34.50;;;;;;5019362;28;20756;-66
2021/11/23 09:46:37;;;;;;;4.13;3.42;;;25.00;34.50;;;;;;5026977;28;21013;-67
2021/11/23 09:49:07;;;;;;;4.20;3.03;;;25.00;34.50;;;;;;5032051;28;20760;-67
2021/11/23 09:51:37;;;;;;;4.27;3.60;;;25.00;34.60;;;;;;5023646;28;20137;-67
2021/11/23 09:54:09;;;;;;;2.72;2.53;;;25.00;34.60;;;;;;5027567;28;20721;-65
2021/11/23 09:56:38;;;;;;;4.20;3.53;;;25.00;34.80;;;;;;5028515;28;20501;-66
2021/11/23 09:59:10;;;;;;;3.88;3.45;;;25.00;34.80;;;;;;5031160;28;20052;-65
2021/11/23 10:01:57;;;;;;;5.18;3.60;;;25.00;35.00;;;;;;5025086;28;20052;-63
2021/11/23 10:04:58;;;;;;;5.18;3.30;;;25.00;35.00;;;;;;5026910;28;20145;-64
2021/11/23 10:07:37;;;;;;;6.10;3.10;;;25.00;34.80;;;;;;5029752;28;20050;-64
2021/11/23 10:10:18;;;;;;;5.40;3.28;;;25.00;34.70;;;;;;5028396;28;20076;-71
2021/11/23 10:12:55;;;;;;;8.00;3.08;;;25.00;34.60;;;;;;5018308;28;20067;-67
2021/11/23 10:15:25;;;;;;;9.32;2.92;;;25.10;34.70;;;;;;5030092;28;20040;-66
2021/11/23 10:18:08;;;;;;;4.53;3.20;;;25.10;34.70;;;;;;5028676;28;20053;-66
2021/11/23 10:20:39;;;;;;;8.75;3.85;;;25.10;35.00;;;;;;5029193;28;20049;-68
2021/11/23 10:23:34;;;;;;;4.75;3.13;;;25.10;34.80;;;;;;5016559;28;20044;-67
2021/11/23 10:26:18;;;;;;;4.22;3.28;;;25.10;34.70;;;;;;5029916;28;20499;-64
2021/11/23 10:28:55;;;;;;;5.95;3.25;;;25.10;34.60;;;;;;5028852;28;20048;-67
2021/11/23 10:31:33;;;;;;;4.40;3.22;;;25.10;34.50;;;;;;5020850;28;20049;-64
2021/11/23 10:34:04;;;;;;;4.22;3.03;;;25.10;34.40;;;;;;5020854;28;20044;-66
2021/11/23 10:36:34;;;;;;;7.45;3.08;;;25.10;34.30;;;;;;5023914;28;20072;-66
2021/11/23 10:39:15;;;;;;;4.20;2.75;;;25.10;34.20;;;;;;5025424;28;20056;-67
2021/11/23 10:41:48;;;;;;;5.65;3.30;;;25.10;34.00;;;;;;5023648;28;20518;-68
2021/11/23 10:44:22;;;;;;;5.60;3.13;;;25.20;34.10;;;;;;5022566;28;20160;-67
2021/11/23 10:47:05;;;;;;;2.83;2.63;;;25.10;33.80;;;;;;5023945;28;20118;-66
2021/11/23 10:49:36;;;;;;;3.22;2.63;;;25.20;33.80;;;;;;5023123;28;20048;-64
2021/11/23 10:52:04;;;;;;;3.10;2.78;;;25.20;33.60;;;;;;5019719;28;20139;-66
2021/11/23 10:54:34;;;;;;;5.25;2.88;;;25.20;33.10;;;;;;5024498;28;20048;-65
2021/11/23 10:57:09;;;;;;;3.47;3.10;;;25.20;32.90;;;;;;5026514;28;21144;-62
2021/11/23 10:59:39;;;;;;;3.10;2.60;;;25.20;32.90;;;;;;5029413;28;20957;-66
2021/11/23 11:02:07;;;;;;;3.65;2.88;;;25.30;33.00;;;;;;5020151;28;20059;-66
2021/11/23 11:04:43;;;;;;;5.68;3.03;;;25.30;33.20;;;;;;5026230;28;20052;-67
2021/11/23 11:07:11;;;;;;;4.50;2.58;;;25.30;33.30;;;;;;5024707;28;20111;-67
2021/11/23 11:09:40;;;;;;;2.65;2.30;;;25.30;33.20;;;;;;5024767;28;20049;-65
2021/11/23 11:12:07;;;;;;;4.88;3.10;;;25.30;33.20;;;;;;5020347;28;20151;-63
2021/11/23 11:14:39;;;;;;;2.78;2.20;;;25.30;33.20;;;;;;5026346;28;20045;-65
2021/11/23 11:17:09;;;;;;;10.90;2.70;;;25.20;32.80;;;;;;5030278;28;20098;-65
2021/11/23 11:19:46;;;;;;;4.07;2.67;;;25.30;32.70;;;;;;5032860;28;20045;-64
2021/11/23 11:22:19;;;;;;;3.33;2.30;;;25.20;32.60;;;;;;5024771;28;20044;-67
2021/11/23 11:25:23;;;;;;;15.10;2.75;;;25.20;32.40;;;;;;5027394;28;20040;-66
2021/11/23 11:27:52;;;;;;;2.72;2.25;;;25.20;32.40;;;;;;5035211;28;20804;-66
2021/11/23 11:30:36;;;;;;;3.25;2.40;;;25.30;32.50;;;;;;5030960;28;20126;-67
2021/11/23 11:33:21;;;;;;;3.47;2.28;;;25.20;32.40;;;;;;5023142;28;20059;-65
2021/11/23 11:35:50;;;;;;;3.67;1.88;;;25.20;32.30;;;;;;5026048;28;20130;-66
2021/11/23 11:38:39;;;;;;;4.72;2.30;;;25.20;32.20;;;;;;5030339;28;20087;-65
2021/11/23 11:41:27;;;;;;;3.92;1.88;;;25.20;32.20;;;;;;5020450;28;20052;-65
2021/11/23 11:44:08;;;;;;;2.25;2.05;;;25.20;32.20;;;;;;5025971;28;20072;-66
2021/11/23 11:46:36;;;;;;;1.90;1.80;;;25.20;32.00;;;;;;5044469;28;20426;-65
2021/11/23 11:49:04;;;;;;;3.33;1.60;;;25.20;31.90;;;;;;5026741;28;20395;-64
2021/11/23 11:51:36;;;;;;;2.95;2.75;;;25.20;31.70;;;;;;5024287;28;21487;-64
2021/11/23 11:54:20;;;;;;;4.13;2.05;;;25.10;27.70;;;;;;5022161;28;20628;-64
2021/11/23 11:56:50;;;;;;;2.47;2.08;;;24.80;27.80;;;;;;5028575;28;20452;-65
2021/11/23 11:59:24;;;;;;;2.35;2.00;;;24.70;29.20;;;;;;5021593;28;20055;-66
2021/11/23 12:02:00;;;;;;;3.92;1.83;;;24.60;29.70;;;;;;5018264;28;20147;-65
2021/11/23 12:04:33;;;;;;;3.20;1.60;;;24.60;30.00;;;;;;5021473;28;20052;-64
2021/11/23 12:07:10;;;;;;;3.55;2.13;;;24.70;30.30;;;;;;5028207;28;20060;-66
2021/11/23 12:09:54;;;;;;;2.38;1.70;;;24.70;30.60;;;;;;5026034;28;20040;-64
2021/11/23 12:12:33;;;;;;;2.42;1.40;;;24.70;30.80;;;;;;5020007;28;20126;-63
2021/11/23 12:15:36;;;;;;;2.03;1.48;;;24.80;31.00;;;;;;5027545;28;20052;-63
2021/11/23 12:18:33;;;;;;;1.55;1.45;;;24.90;31.20;;;;;;5024375;28;20115;-66
2021/11/23 12:21:12;;;;;;;2.25;1.50;;;24.90;31.10;;;;;;5025212;28;20056;-66
2021/11/23 12:23:45;;;;;;;2.60;1.70;;;25.00;31.30;;;;;;5023712;28;20147;-66
2021/11/23 12:26:18;;;;;;;3.95;2.28;;;25.00;31.00;;;;;;5028004;28;20132;-60
2021/11/23 12:29:04;;;;;;;6.32;1.85;;;25.00;30.30;;;;;;5024304;28;20053;-65
2021/11/23 12:31:42;;;;;;;2.75;1.75;;;25.00;30.30;;;;;;5019926;28;20140;-67
2021/11/23 12:34:09;;;;;;;4.63;1.77;;;25.00;30.30;;;;;;5017956;28;20079;-65
2021/11/23 12:36:44;;;;;;;4.28;1.83;;;25.00;30.50;;;;;;5027241;28;20136;-67
2021/11/23 12:39:20;;;;;;;2.97;1.42;;;25.00;30.70;;;;;;5028394;28;20125;-66
2021/11/23 12:41:56;;;;;;;1.95;1.60;;;25.10;30.80;;;;;;5022263;28;20052;-66
2021/11/23 12:44:26;;;;;;;6.15;1.98;;;25.00;30.90;;;;;;5017081;28;20474;-67
2021/11/23 12:46:58;;;;;;;;;;;25.10;30.80;;;;;;5023291;28;20048;-65
2021/11/23 12:49:27;;;;;;;4.35;2.08;;;25.10;30.80;;;;;;5026237;28;20097;-63
2021/11/23 12:51:57;;;;;;;4.22;1.95;;;25.10;30.60;;;;;;5017903;28;20048;-61
2021/11/23 12:54:27;;;;;;;2.50;1.92;;;25.10;30.60;;;;;;5017761;28;20102;-61
2021/11/23 12:57:04;;;;;;;4.07;1.45;;;25.10;30.50;;;;;;5025413;28;20052;-62
2021/11/23 12:59:52;;;;;;;4.10;1.20;;;25.10;30.70;;;;;;5024622;28;20475;-62
2021/11/23 13:02:34;;;;;;;3.00;1.73;;;25.10;30.70;;;;;;5017946;28;20484;-63